Time;durP1;ratioP1;P1;durP2;ratioP2;P2;SDS_P1;SDS_P2;PMS_P1;PMS_P2;Temp;Humidity;BMP_temperature;BMP_pressure;BME280_temperature;BME280_humidity;BME280_pressure;Samples;Min_cycle;Max_cycle;Signal;HPM_P1;HPM_P2
2022/08/31 00:04:42;;;;;;;1.25;1.15;;;;;;;;;;1651202;29;22336;-62
2022/08/31 00:05:34;;;;;;;1.38;1.27;;;;;;;;;;1654621;29;22747;-62
2022/08/31 00:06:27;;;;;;;1.55;1.27;;;;;;;;;;1655343;29;21605;-62
2022/08/31 00:07:18;;;;;;;2.28;1.30;;;;;;;;;;1657602;29;21923;-62
2022/08/31 00:08:10;;;;;;;1.60;1.13;;;;;;;;;;1655702;29;22006;-62
2022/08/31 00:09:04;;;;;;;1.42;1.00;;;;;;;;;;1654765;29;22018;-62
2022/08/31 00:09:58;;;;;;;1.10;1.10;;;;;;;;;;1656023;29;21593;-62
2022/08/31 00:10:49;;;;;;;1.58;1.02;;;;;;;;;;1655715;29;21681;-62
2022/08/31 00:11:41;;;;;;;1.30;1.02;;;;;;;;;;1652243;29;22112;-62
2022/08/31 00:12:32;;;;;;;1.10;1.00;;;;;;;;;;1655713;29;21793;-62
2022/08/31 00:13:26;;;;;;;1.23;1.10;;;;;;;;;;1653308;29;21658;-62
2022/08/31 00:14:17;;;;;;;1.17;1.00;;;;;;;;;;1653125;29;22490;-62
2022/08/31 00:15:11;;;;;;;4.15;1.25;;;;;;;;;;1655770;29;21924;-61
2022/08/31 00:16:03;;;;;;;1.00;0.80;;;;;;;;;;1655064;29;21660;-61
2022/08/31 00:16:55;;;;;;;1.27;0.90;;;;;;;;;;1655722;29;21822;-61
2022/08/31 00:17:46;;;;;;;0.90;0.90;;;;;;;;;;1656376;29;22037;-61
2022/08/31 00:18:39;;;;;;;1.48;1.13;;;;;;;;;;1655577;29;21730;-61
2022/08/31 00:19:30;;;;;;;1.30;1.00;;;;;;;;;;1654967;29;21602;-62
2022/08/31 00:20:24;;;;;;;1.13;1.02;;;;;;;;;;1650108;29;21753;-62
2022/08/31 00:21:15;;;;;;;0.82;0.73;;;;;;;;;;1655013;29;21971;-62
2022/08/31 00:22:07;;;;;;;2.65;0.93;;;;;;;;;;1653897;29;22676;-62
2022/08/31 00:22:59;;;;;;;1.10;0.98;;;;;;;;;;1654474;29;22521;-62
2022/08/31 00:23:51;;;;;;;1.05;0.95;;;;;;;;;;1656744;29;22714;-62
2022/08/31 00:24:42;;;;;;;1.08;0.98;;;;;;;;;;1655518;29;21649;-62
2022/08/31 00:25:37;;;;;;;1.50;1.38;;;;;;;;;;1656393;29;21620;-62
2022/08/31 00:26:28;;;;;;;0.80;0.80;;;;;;;;;;1655902;29;21671;-61
2022/08/31 00:27:20;;;;;;;0.70;0.70;;;;;;;;;;1654574;29;21622;-61
2022/08/31 00:28:14;;;;;;;1.83;1.00;;;;;;;;;;1656160;29;21650;-62
2022/08/31 00:29:07;;;;;;;1.00;0.90;;;;;;;;;;1655676;29;21824;-61
2022/08/31 00:29:58;;;;;;;2.28;0.85;;;;;;;;;;1654315;29;21618;-61
2022/08/31 00:30:50;;;;;;;1.63;0.75;;;;;;;;;;1656385;29;21620;-61
2022/08/31 00:31:42;;;;;;;0.88;0.80;;;;;;;;;;1656325;29;22606;-62
2022/08/31 00:32:34;;;;;;;1.17;1.00;;;;;;;;;;1653714;29;21748;-62
2022/08/31 00:33:25;;;;;;;0.75;0.70;;;;;;;;;;1654598;29;21755;-62
2022/08/31 00:34:18;;;;;;;1.02;0.73;;;;;;;;;;1656276;29;21642;-62
2022/08/31 00:35:10;;;;;;;0.68;0.68;;;;;;;;;;1653911;29;21611;-62
2022/08/31 00:36:03;;;;;;;0.73;0.70;;;;;;;;;;1653142;29;21642;-62
2022/08/31 00:36:54;;;;;;;0.90;0.70;;;;;;;;;;1657483;29;21704;-62
2022/08/31 00:37:46;;;;;;;0.68;0.60;;;;;;;;;;1654092;29;21728;-62
2022/08/31 00:38:38;;;;;;;0.40;0.40;;;;;;;;;;1653358;29;21937;-62
2022/08/31 00:39:31;;;;;;;0.60;0.60;;;;;;;;;;1656024;29;21667;-62
2022/08/31 00:40:22;;;;;;;1.35;0.80;;;;;;;;;;1654430;29;22018;-62
2022/08/31 00:41:20;;;;;;;0.50;0.50;;;;;;;;;;1655522;29;22028;-62
2022/08/31 00:42:11;;;;;;;0.95;0.75;;;;;;;;;;1656036;29;21790;-62
2022/08/31 00:43:03;;;;;;;1.50;0.70;;;;;;;;;;1653643;29;21796;-61
2022/08/31 00:44:00;;;;;;;0.55;0.50;;;;;;;;;;1655865;29;21771;-62
2022/08/31 00:44:52;;;;;;;0.68;0.68;;;;;;;;;;1656309;29;21597;-63
2022/08/31 00:45:43;;;;;;;0.55;0.55;;;;;;;;;;1654770;29;21676;-61
2022/08/31 00:46:39;;;;;;;0.43;0.43;;;;;;;;;;1655481;29;21709;-62
2022/08/31 00:47:30;;;;;;;1.17;0.73;;;;;;;;;;1656236;29;21722;-62
2022/08/31 00:48:22;;;;;;;0.85;0.77;;;;;;;;;;1654870;29;21711;-62
2022/08/31 00:49:18;;;;;;;0.88;0.80;;;;;;;;;;1655732;29;21703;-61
2022/08/31 00:50:15;;;;;;;0.73;0.65;;;;;;;;;;1655760;29;22327;-62
2022/08/31 00:51:06;;;;;;;1.05;0.73;;;;;;;;;;1653517;29;21801;-62
2022/08/31 00:52:02;;;;;;;1.10;0.35;;;;;;;;;;1653095;29;21726;-62
2022/08/31 00:52:59;;;;;;;0.60;0.60;;;;;;;;;;1654874;29;21650;-62
2022/08/31 00:53:52;;;;;;;0.60;0.60;;;;;;;;;;1652930;29;21882;-60
2022/08/31 00:54:49;;;;;;;0.60;0.60;;;;;;;;;;1656288;29;22652;-61
2022/08/31 00:55:40;;;;;;;0.80;0.60;;;;;;;;;;1656088;29;21685;-63
2022/08/31 00:56:36;;;;;;;2.42;0.70;;;;;;;;;;1653719;29;21830;-61
2022/08/31 00:57:33;;;;;;;0.47;0.40;;;;;;;;;;1656337;29;22476;-62
2022/08/31 00:58:26;;;;;;;0.63;0.60;;;;;;;;;;1656432;29;21664;-62
2022/08/31 00:59:19;;;;;;;0.85;0.70;;;;;;;;;;1654315;29;21815;-61
2022/08/31 01:00:17;;;;;;;0.50;0.47;;;;;;;;;;1655909;29;21595;-61
2022/08/31 01:01:10;;;;;;;0.52;0.50;;;;;;;;;;1655454;29;21602;-62
2022/08/31 01:02:03;;;;;;;0.52;0.50;;;;;;;;;;1654083;29;21632;-62
2022/08/31 01:02:55;;;;;;;0.50;0.50;;;;;;;;;;1654859;29;21668;-62
2022/08/31 01:03:48;;;;;;;0.73;0.50;;;;;;;;;;1655066;29;21986;-61
2022/08/31 01:04:39;;;;;;;0.65;0.43;;;;;;;;;;1655967;29;21644;-62
2022/08/31 01:05:32;;;;;;;0.70;0.50;;;;;;;;;;1656204;29;22296;-61
2022/08/31 01:06:25;;;;;;;1.73;0.60;;;;;;;;;;1653615;29;21855;-61
2022/08/31 01:07:17;;;;;;;1.45;0.65;;;;;;;;;;1656051;29;21701;-61
2022/08/31 01:08:09;;;;;;;0.77;0.77;;;;;;;;;;1655623;29;22082;-61
2022/08/31 01:09:03;;;;;;;0.60;0.40;;;;;;;;;;1653818;29;21829;-62
2022/08/31 01:09:55;;;;;;;0.50;0.50;;;;;;;;;;1653123;29;22006;-62
2022/08/31 01:10:47;;;;;;;0.70;0.47;;;;;;;;;;1656035;29;22448;-62
2022/08/31 01:11:41;;;;;;;0.77;0.70;;;;;;;;;;1653570;29;22072;-62
2022/08/31 01:12:33;;;;;;;0.50;0.35;;;;;;;;;;1652821;29;22235;-62
2022/08/31 01:13:25;;;;;;;0.80;0.40;;;;;;;;;;1654880;29;22273;-62
2022/08/31 01:14:17;;;;;;;0.65;0.38;;;;;;;;;;1654745;29;21757;-62
2022/08/31 01:15:09;;;;;;;0.50;0.50;;;;;;;;;;1656242;29;21608;-62
2022/08/31 01:16:09;;;;;;;0.85;0.50;;;;;;;;;;1655763;29;22075;-62
2022/08/31 01:17:00;;;;;;;0.50;0.50;;;;;;;;;;1653512;29;21592;-62
2022/08/31 01:17:55;;;;;;;0.77;0.50;;;;;;;;;;1656278;29;22028;-62
2022/08/31 01:18:48;;;;;;;0.60;0.50;;;;;;;;;;1656025;29;22024;-62
2022/08/31 01:19:48;;;;;;;0.90;0.65;;;;;;;;;;1653381;29;21838;-62
2022/08/31 01:20:52;;;;;;;0.50;0.40;;;;;;;;;;1649027;29;21626;-62
2022/08/31 01:21:55;;;;;;;0.70;0.40;;;;;;;;;;1649483;29;21740;-62
2022/08/31 01:23:03;;;;;;;0.65;0.47;;;;;;;;;;1653873;29;21725;-61
2022/08/31 01:23:59;;;;;;;1.23;0.70;;;;;;;;;;1655998;29;21704;-62
2022/08/31 01:24:51;;;;;;;0.65;0.43;;;;;;;;;;1655217;29;22800;-62
2022/08/31 01:25:46;;;;;;;0.30;0.25;;;;;;;;;;1655209;29;22894;-62
2022/08/31 01:26:37;;;;;;;0.50;0.50;;;;;;;;;;1655953;29;21734;-62
2022/08/31 01:27:33;;;;;;;0.63;0.50;;;;;;;;;;1654588;29;21643;-62
2022/08/31 01:28:25;;;;;;;1.17;0.30;;;;;;;;;;1655392;29;21627;-62
2022/08/31 01:29:18;;;;;;;0.30;0.30;;;;;;;;;;1655960;29;21637;-62
2022/08/31 01:30:19;;;;;;;0.40;0.40;;;;;;;;;;1654690;29;21618;-61
2022/08/31 01:31:21;;;;;;;0.50;0.32;;;;;;;;;;1656667;29;21938;-61
2022/08/31 01:32:13;;;;;;;2.85;0.50;;;;;;;;;;1656046;29;22367;-61
2022/08/31 01:33:06;;;;;;;0.30;0.30;;;;;;;;;;1652772;29;22089;-62
2022/08/31 01:33:57;;;;;;;0.50;0.40;;;;;;;;;;1654332;29;22620;-62
2022/08/31 01:34:49;;;;;;;0.63;0.47;;;;;;;;;;1657135;29;21682;-62
2022/08/31 01:35:43;;;;;;;0.32;0.30;;;;;;;;;;1654144;29;21639;-62
2022/08/31 01:36:38;;;;;;;1.17;0.40;;;;;;;;;;1656319;29;21661;-62
2022/08/31 01:37:30;;;;;;;1.30;0.45;;;;;;;;;;1655708;29;21788;-62
2022/08/31 01:38:24;;;;;;;0.43;0.43;;;;;;;;;;1653509;29;21957;-62
2022/08/31 01:39:15;;;;;;;0.55;0.47;;;;;;;;;;1656023;29;21711;-63
2022/08/31 01:40:10;;;;;;;0.32;0.30;;;;;;;;;;1656291;29;22440;-62
2022/08/31 01:41:02;;;;;;;0.68;0.40;;;;;;;;;;1654773;29;21683;-63
2022/08/31 01:41:55;;;;;;;0.88;0.30;;;;;;;;;;1652993;29;21602;-60
2022/08/31 01:42:46;;;;;;;1.80;0.40;;;;;;;;;;1654469;29;22862;-61
2022/08/31 01:43:38;;;;;;;0.68;0.40;;;;;;;;;;1653499;29;21707;-61
2022/08/31 01:44:29;;;;;;;0.70;0.38;;;;;;;;;;1652726;29;22182;-62
2022/08/31 01:45:22;;;;;;;0.82;0.30;;;;;;;;;;1655831;29;21652;-62
2022/08/31 01:46:13;;;;;;;2.05;0.40;;;;;;;;;;1651801;29;22121;-62
2022/08/31 01:47:05;;;;;;;1.33;0.63;;;;;;;;;;1655058;29;22003;-62
2022/08/31 01:47:58;;;;;;;1.77;0.32;;;;;;;;;;1648227;29;21639;-62
2022/08/31 01:48:51;;;;;;;0.40;0.40;;;;;;;;;;1647742;29;21590;-62
2022/08/31 01:49:42;;;;;;;0.60;0.40;;;;;;;;;;1653373;29;22055;-62
2022/08/31 01:50:34;;;;;;;0.38;0.30;;;;;;;;;;1655698;29;21639;-62
2022/08/31 01:51:26;;;;;;;0.63;0.40;;;;;;;;;;1654391;29;21758;-63
2022/08/31 01:52:18;;;;;;;0.68;0.40;;;;;;;;;;1654854;29;21645;-62
2022/08/31 01:53:11;;;;;;;1.10;0.30;;;;;;;;;;1654689;29;21735;-61
2022/08/31 01:54:04;;;;;;;1.30;0.32;;;;;;;;;;1654089;29;22292;-62
2022/08/31 01:54:56;;;;;;;0.20;0.20;;;;;;;;;;1654638;29;21842;-62
2022/08/31 01:55:47;;;;;;;2.20;0.40;;;;;;;;;;1655749;29;22429;-62
2022/08/31 01:56:44;;;;;;;0.80;0.40;;;;;;;;;;1655354;29;21677;-62
2022/08/31 01:57:36;;;;;;;0.60;0.47;;;;;;;;;;1654797;29;22034;-62
2022/08/31 01:58:28;;;;;;;0.30;0.30;;;;;;;;;;1648041;29;21674;-62
2022/08/31 01:59:21;;;;;;;0.52;0.30;;;;;;;;;;1648093;29;22563;-62
2022/08/31 02:00:13;;;;;;;0.52;0.30;;;;;;;;;;1653324;29;21583;-62
2022/08/31 02:01:06;;;;;;;0.20;0.20;;;;;;;;;;1655518;29;22563;-62
2022/08/31 02:01:57;;;;;;;2.92;0.45;;;;;;;;;;1650149;29;21615;-62
2022/08/31 02:02:48;;;;;;;0.88;0.35;;;;;;;;;;1652323;29;21669;-62
2022/08/31 02:03:40;;;;;;;0.43;0.30;;;;;;;;;;1654661;29;21893;-62
2022/08/31 02:04:32;;;;;;;0.57;0.40;;;;;;;;;;1655523;29;21623;-62
2022/08/31 02:05:24;;;;;;;0.70;0.32;;;;;;;;;;1654417;29;22639;-62
2022/08/31 02:06:15;;;;;;;0.40;0.35;;;;;;;;;;1655796;29;22669;-62
2022/08/31 02:07:07;;;;;;;0.40;0.30;;;;;;;;;;1655333;29;22460;-62
2022/08/31 02:07:59;;;;;;;1.00;0.57;;;;;;;;;;1654339;29;21638;-62
2022/08/31 02:08:51;;;;;;;0.82;0.38;;;;;;;;;;1655829;29;21772;-62
2022/08/31 02:09:43;;;;;;;0.40;0.40;;;;;;;;;;1656857;29;21744;-62
2022/08/31 02:10:37;;;;;;;0.50;0.50;;;;;;;;;;1654002;29;21782;-62
2022/08/31 02:11:28;;;;;;;0.40;0.25;;;;;;;;;;1656311;29;21630;-63
2022/08/31 02:12:20;;;;;;;0.20;0.20;;;;;;;;;;1655962;29;21765;-62
2022/08/31 02:13:12;;;;;;;0.40;0.30;;;;;;;;;;1651206;29;21608;-62
2022/08/31 02:14:05;;;;;;;0.38;0.38;;;;;;;;;;1656711;29;22129;-62
2022/08/31 02:14:56;;;;;;;0.98;0.50;;;;;;;;;;1656325;29;21993;-62
2022/08/31 02:15:49;;;;;;;0.30;0.30;;;;;;;;;;1655030;29;21671;-62
2022/08/31 02:16:41;;;;;;;0.40;0.30;;;;;;;;;;1652910;29;22159;-62
2022/08/31 02:17:33;;;;;;;2.65;0.30;;;;;;;;;;1655823;29;21845;-62
2022/08/31 02:18:25;;;;;;;0.40;0.38;;;;;;;;;;1653968;29;22641;-62
2022/08/31 02:19:18;;;;;;;0.80;0.80;;;;;;;;;;1655469;29;22575;-62
2022/08/31 02:20:11;;;;;;;0.45;0.40;;;;;;;;;;1655168;29;21611;-62
2022/08/31 02:21:03;;;;;;;2.90;0.35;;;;;;;;;;1654346;29;21630;-62
2022/08/31 02:21:54;;;;;;;0.40;0.40;;;;;;;;;;1654963;29;21614;-62
2022/08/31 02:22:47;;;;;;;0.52;0.40;;;;;;;;;;1654540;29;21655;-62
2022/08/31 02:23:38;;;;;;;0.50;0.50;;;;;;;;;;1653956;29;21823;-62
2022/08/31 02:24:31;;;;;;;0.90;0.50;;;;;;;;;;1654462;29;21602;-62
2022/08/31 02:25:23;;;;;;;1.08;0.57;;;;;;;;;;1655827;29;21629;-62
2022/08/31 02:26:16;;;;;;;1.48;0.47;;;;;;;;;;1656425;29;22117;-62
2022/08/31 02:27:07;;;;;;;4.15;0.47;;;;;;;;;;1653912;29;21584;-62
2022/08/31 02:27:59;;;;;;;2.05;0.50;;;;;;;;;;1655561;29;21813;-62
2022/08/31 02:28:51;;;;;;;0.43;0.40;;;;;;;;;;1654236;29;21734;-62
2022/08/31 02:29:43;;;;;;;0.60;0.43;;;;;;;;;;1655352;29;22555;-63
2022/08/31 02:30:34;;;;;;;1.17;0.50;;;;;;;;;;1655561;29;22405;-61
2022/08/31 02:31:26;;;;;;;0.57;0.40;;;;;;;;;;1654967;29;22477;-63
2022/08/31 02:32:20;;;;;;;0.45;0.43;;;;;;;;;;1649665;29;21651;-62
2022/08/31 02:33:12;;;;;;;3.63;0.50;;;;;;;;;;1653187;29;21604;-63
2022/08/31 02:34:03;;;;;;;0.35;0.20;;;;;;;;;;1654263;29;22002;-63
2022/08/31 02:34:55;;;;;;;0.73;0.50;;;;;;;;;;1654560;29;22087;-63
2022/08/31 02:35:47;;;;;;;0.50;0.50;;;;;;;;;;1655776;29;21678;-62
2022/08/31 02:36:39;;;;;;;1.85;0.30;;;;;;;;;;1648411;29;21625;-62
2022/08/31 02:37:30;;;;;;;0.35;0.30;;;;;;;;;;1647845;29;21631;-61
2022/08/31 02:38:23;;;;;;;0.55;0.50;;;;;;;;;;1653162;29;21777;-62
2022/08/31 02:39:14;;;;;;;0.60;0.40;;;;;;;;;;1655424;29;21614;-63
2022/08/31 02:40:08;;;;;;;0.57;0.38;;;;;;;;;;1648863;29;22286;-64
2022/08/31 02:41:01;;;;;;;0.63;0.40;;;;;;;;;;1653621;29;21615;-62
2022/08/31 02:41:54;;;;;;;1.50;0.35;;;;;;;;;;1655822;29;21739;-61
2022/08/31 02:42:45;;;;;;;0.65;0.40;;;;;;;;;;1654187;29;22152;-63
2022/08/31 02:43:36;;;;;;;0.63;0.30;;;;;;;;;;1653252;29;22210;-62
2022/08/31 02:44:28;;;;;;;0.55;0.40;;;;;;;;;;1655584;29;21834;-62
2022/08/31 02:45:20;;;;;;;0.45;0.35;;;;;;;;;;1655630;29;22372;-62
2022/08/31 02:46:12;;;;;;;0.40;0.40;;;;;;;;;;1654261;29;22094;-62
2022/08/31 02:47:04;;;;;;;0.70;0.38;;;;;;;;;;1655233;29;21993;-62
2022/08/31 02:47:56;;;;;;;0.30;0.30;;;;;;;;;;1655364;29;22435;-62
2022/08/31 02:48:47;;;;;;;0.50;0.50;;;;;;;;;;1653355;29;21665;-62
2022/08/31 02:49:39;;;;;;;0.95;0.50;;;;;;;;;;1656487;29;22244;-62
2022/08/31 02:50:31;;;;;;;0.60;0.40;;;;;;;;;;1655541;29;22259;-62
2022/08/31 02:51:23;;;;;;;0.70;0.50;;;;;;;;;;1653934;29;21753;-62
2022/08/31 02:52:15;;;;;;;0.30;0.25;;;;;;;;;;1655150;29;21645;-61
2022/08/31 02:53:07;;;;;;;0.28;0.28;;;;;;;;;;1652667;29;22377;-62
2022/08/31 02:53:58;;;;;;;0.30;0.30;;;;;;;;;;1654033;29;21661;-62
2022/08/31 02:54:51;;;;;;;0.52;0.30;;;;;;;;;;1654511;29;21599;-62
2022/08/31 02:55:42;;;;;;;0.47;0.38;;;;;;;;;;1655528;29;21737;-61
2022/08/31 02:56:36;;;;;;;3.20;0.47;;;;;;;;;;1654249;29;21703;-62
2022/08/31 02:57:27;;;;;;;1.27;0.40;;;;;;;;;;1655859;29;22371;-62
2022/08/31 02:58:20;;;;;;;0.25;0.22;;;;;;;;;;1655447;29;21757;-62
2022/08/31 02:59:11;;;;;;;1.75;0.30;;;;;;;;;;1653963;29;21611;-62
2022/08/31 03:00:04;;;;;;;0.43;0.30;;;;;;;;;;1655670;29;21752;-62
2022/08/31 03:00:56;;;;;;;0.75;0.68;;;;;;;;;;1656820;29;21670;-62
2022/08/31 03:01:48;;;;;;;0.35;0.35;;;;;;;;;;1655758;29;22030;-62
2022/08/31 03:02:40;;;;;;;0.32;0.32;;;;;;;;;;1652402;29;22527;-62
2022/08/31 03:03:33;;;;;;;0.43;0.25;;;;;;;;;;1655791;29;21589;-62
2022/08/31 03:04:24;;;;;;;0.60;0.45;;;;;;;;;;1655419;29;21974;-62
2022/08/31 03:05:17;;;;;;;0.40;0.30;;;;;;;;;;1655276;29;22414;-62
2022/08/31 03:06:08;;;;;;;0.28;0.20;;;;;;;;;;1650091;29;22518;-62
2022/08/31 03:07:02;;;;;;;0.82;0.40;;;;;;;;;;1656085;29;21669;-62
2022/08/31 03:07:53;;;;;;;0.35;0.30;;;;;;;;;;1654152;29;21637;-62
2022/08/31 03:08:46;;;;;;;0.93;0.40;;;;;;;;;;1656548;29;22542;-62
2022/08/31 03:09:38;;;;;;;2.35;0.47;;;;;;;;;;1656575;29;21939;-61
2022/08/31 03:10:30;;;;;;;0.60;0.38;;;;;;;;;;1654278;29;21611;-61
2022/08/31 03:11:21;;;;;;;0.25;0.20;;;;;;;;;;1656672;29;21575;-59
2022/08/31 03:12:15;;;;;;;1.92;0.50;;;;;;;;;;1656727;29;21623;-61
2022/08/31 03:13:06;;;;;;;0.80;0.50;;;;;;;;;;1653444;29;21763;-62
2022/08/31 03:13:58;;;;;;;0.20;0.20;;;;;;;;;;1653605;29;21626;-62
2022/08/31 03:14:50;;;;;;;0.77;0.50;;;;;;;;;;1656624;29;22120;-61
2022/08/31 03:15:42;;;;;;;0.73;0.30;;;;;;;;;;1655109;29;22332;-61
2022/08/31 03:16:34;;;;;;;0.38;0.30;;;;;;;;;;1652609;29;21623;-62
2022/08/31 03:17:26;;;;;;;0.70;0.40;;;;;;;;;;1656674;29;21610;-62
2022/08/31 03:18:17;;;;;;;0.68;0.40;;;;;;;;;;1655813;29;21718;-61
2022/08/31 03:19:10;;;;;;;0.35;0.35;;;;;;;;;;1654955;29;21655;-61
2022/08/31 03:20:04;;;;;;;0.57;0.40;;;;;;;;;;1656222;29;21665;-62
2022/08/31 03:20:56;;;;;;;1.02;0.55;;;;;;;;;;1655274;29;21641;-62
2022/08/31 03:21:48;;;;;;;0.57;0.40;;;;;;;;;;1655644;29;21597;-62
2022/08/31 03:22:40;;;;;;;0.35;0.30;;;;;;;;;;1655400;29;21600;-62
2022/08/31 03:23:32;;;;;;;0.40;0.38;;;;;;;;;;1655278;29;21628;-61
2022/08/31 03:24:24;;;;;;;0.30;0.30;;;;;;;;;;1655456;29;21649;-61
2022/08/31 03:25:16;;;;;;;0.68;0.30;;;;;;;;;;1656670;29;21779;-60
2022/08/31 03:26:08;;;;;;;0.88;0.40;;;;;;;;;;1654634;29;21762;-61
2022/08/31 03:26:59;;;;;;;0.73;0.50;;;;;;;;;;1646289;29;21746;-62
2022/08/31 03:27:53;;;;;;;1.65;0.35;;;;;;;;;;1649470;29;22676;-62
2022/08/31 03:28:44;;;;;;;1.80;0.57;;;;;;;;;;1653247;29;21593;-62
2022/08/31 03:29:36;;;;;;;1.30;0.38;;;;;;;;;;1655360;29;21633;-62
2022/08/31 03:30:28;;;;;;;0.40;0.30;;;;;;;;;;1656561;29;22121;-62
2022/08/31 03:31:20;;;;;;;0.20;0.20;;;;;;;;;;1655233;29;22034;-62
2022/08/31 03:32:11;;;;;;;0.43;0.30;;;;;;;;;;1655375;29;21704;-62
2022/08/31 03:33:04;;;;;;;0.50;0.30;;;;;;;;;;1654123;29;21726;-62
2022/08/31 03:33:56;;;;;;;1.05;0.40;;;;;;;;;;1657461;29;21607;-61
2022/08/31 03:34:48;;;;;;;0.30;0.25;;;;;;;;;;1655046;29;22090;-63
2022/08/31 03:35:42;;;;;;;0.95;0.40;;;;;;;;;;1656072;29;21660;-62
2022/08/31 03:36:35;;;;;;;0.30;0.30;;;;;;;;;;1656517;29;22427;-62
2022/08/31 03:37:26;;;;;;;0.30;0.30;;;;;;;;;;1655167;29;21736;-61
2022/08/31 03:38:19;;;;;;;1.15;0.32;;;;;;;;;;1654810;29;22394;-62
2022/08/31 03:39:10;;;;;;;0.45;0.40;;;;;;;;;;1655974;29;21597;-62
2022/08/31 03:40:02;;;;;;;0.88;0.30;;;;;;;;;;1654888;29;21770;-61
2022/08/31 03:40:55;;;;;;;0.28;0.28;;;;;;;;;;1654825;29;21675;-62
2022/08/31 03:41:46;;;;;;;0.60;0.30;;;;;;;;;;1656627;29;21706;-62
2022/08/31 03:42:39;;;;;;;1.00;0.32;;;;;;;;;;1654569;29;22021;-62
2022/08/31 03:43:31;;;;;;;0.40;0.30;;;;;;;;;;1656097;29;22537;-62
2022/08/31 03:44:23;;;;;;;0.82;0.43;;;;;;;;;;1650091;29;21795;-62
2022/08/31 03:45:15;;;;;;;0.52;0.40;;;;;;;;;;1655083;29;21592;-62
2022/08/31 03:46:07;;;;;;;0.95;0.30;;;;;;;;;;1654741;29;21654;-62
2022/08/31 03:46:59;;;;;;;0.38;0.38;;;;;;;;;;1656347;29;21663;-62
2022/08/31 03:47:51;;;;;;;0.38;0.30;;;;;;;;;;1656583;29;21692;-63
2022/08/31 03:48:42;;;;;;;0.57;0.40;;;;;;;;;;1654907;29;21638;-62
2022/08/31 03:49:34;;;;;;;0.30;0.30;;;;;;;;;;1656449;29;22040;-62
2022/08/31 03:50:25;;;;;;;0.88;0.35;;;;;;;;;;1656362;29;21651;-62
2022/08/31 03:51:18;;;;;;;1.35;0.50;;;;;;;;;;1654029;29;21876;-63
2022/08/31 03:52:10;;;;;;;0.30;0.20;;;;;;;;;;1656242;29;21666;-62
2022/08/31 03:53:03;;;;;;;0.88;0.50;;;;;;;;;;1656343;29;22032;-62
2022/08/31 03:53:54;;;;;;;0.52;0.30;;;;;;;;;;1653690;29;21738;-61
2022/08/31 03:54:47;;;;;;;0.63;0.30;;;;;;;;;;1657583;29;21641;-61
2022/08/31 03:55:40;;;;;;;0.68;0.40;;;;;;;;;;1656476;29;21758;-61
2022/08/31 03:56:33;;;;;;;0.60;0.40;;;;;;;;;;1654283;29;21793;-62
2022/08/31 03:57:24;;;;;;;0.50;0.35;;;;;;;;;;1656614;29;21667;-62
2022/08/31 03:58:17;;;;;;;0.45;0.38;;;;;;;;;;1656589;29;21644;-63
2022/08/31 03:59:09;;;;;;;0.20;0.20;;;;;;;;;;1653836;29;21958;-60
2022/08/31 04:00:02;;;;;;;0.90;0.40;;;;;;;;;;1653213;29;21646;-61
2022/08/31 04:00:55;;;;;;;0.50;0.30;;;;;;;;;;1657764;29;21615;-61
2022/08/31 04:01:46;;;;;;;1.45;0.40;;;;;;;;;;1654211;29;22350;-61
2022/08/31 04:02:39;;;;;;;0.40;0.30;;;;;;;;;;1650464;29;22237;-61
2022/08/31 04:03:31;;;;;;;0.30;0.30;;;;;;;;;;1655295;29;22404;-61
2022/08/31 04:04:23;;;;;;;0.38;0.30;;;;;;;;;;1654643;29;21710;-61
2022/08/31 04:05:14;;;;;;;1.73;0.40;;;;;;;;;;1656145;29;21744;-61
2022/08/31 04:06:09;;;;;;;1.13;0.50;;;;;;;;;;1656009;29;21738;-61
2022/08/31 04:07:01;;;;;;;0.30;0.30;;;;;;;;;;1656234;29;21894;-62
2022/08/31 04:07:53;;;;;;;0.60;0.38;;;;;;;;;;1654114;29;21594;-63
2022/08/31 04:08:44;;;;;;;0.40;0.25;;;;;;;;;;1653291;29;21636;-61
2022/08/31 04:09:37;;;;;;;1.65;0.30;;;;;;;;;;1656186;29;21753;-62
2022/08/31 04:10:28;;;;;;;0.30;0.30;;;;;;;;;;1654913;29;21601;-62
2022/08/31 04:11:20;;;;;;;0.93;0.38;;;;;;;;;;1655060;29;21792;-62
2022/08/31 04:12:11;;;;;;;0.70;0.30;;;;;;;;;;1656365;29;22158;-61
2022/08/31 04:13:04;;;;;;;1.27;0.38;;;;;;;;;;1654524;29;21862;-62
2022/08/31 04:13:55;;;;;;;0.77;0.40;;;;;;;;;;1652530;29;22444;-62
2022/08/31 04:14:48;;;;;;;1.50;0.50;;;;;;;;;;1656415;29;22447;-62
2022/08/31 04:15:40;;;;;;;0.90;0.38;;;;;;;;;;1654841;29;22224;-62
2022/08/31 04:16:34;;;;;;;0.45;0.38;;;;;;;;;;1655342;29;22268;-62
2022/08/31 04:17:25;;;;;;;0.60;0.40;;;;;;;;;;1656356;29;21688;-62
2022/08/31 04:18:19;;;;;;;0.30;0.20;;;;;;;;;;1654711;29;22541;-62
2022/08/31 04:19:14;;;;;;;0.77;0.40;;;;;;;;;;1654969;29;22471;-62
2022/08/31 04:20:08;;;;;;;1.15;0.45;;;;;;;;;;1655820;29;22027;-62
2022/08/31 04:20:59;;;;;;;1.38;0.50;;;;;;;;;;1655296;29;22245;-61
2022/08/31 04:21:51;;;;;;;4.25;0.35;;;;;;;;;;1655326;29;21970;-62
2022/08/31 04:22:42;;;;;;;0.75;0.28;;;;;;;;;;1655248;29;21850;-62
2022/08/31 04:23:38;;;;;;;0.15;0.15;;;;;;;;;;1653698;29;21952;-62
2022/08/31 04:24:29;;;;;;;1.33;0.30;;;;;;;;;;1655168;29;21658;-62
2022/08/31 04:25:21;;;;;;;0.60;0.30;;;;;;;;;;1656191;29;22290;-62
2022/08/31 04:26:18;;;;;;;0.75;0.40;;;;;;;;;;1654875;29;21657;-62
2022/08/31 04:27:10;;;;;;;0.90;0.30;;;;;;;;;;1654940;29;22305;-62
2022/08/31 04:28:02;;;;;;;0.22;0.20;;;;;;;;;;1656025;29;21680;-62
2022/08/31 04:28:55;;;;;;;0.32;0.32;;;;;;;;;;1654616;29;21690;-62
2022/08/31 04:29:48;;;;;;;0.43;0.20;;;;;;;;;;1655148;29;21661;-62
2022/08/31 04:30:42;;;;;;;0.55;0.30;;;;;;;;;;1656200;29;21902;-61
2022/08/31 04:31:34;;;;;;;0.52;0.30;;;;;;;;;;1651416;29;22038;-62
2022/08/31 04:32:26;;;;;;;0.75;0.30;;;;;;;;;;1655299;29;21595;-61
2022/08/31 04:33:17;;;;;;;0.40;0.22;;;;;;;;;;1654157;29;21663;-61
2022/08/31 04:34:10;;;;;;;0.52;0.20;;;;;;;;;;1654467;29;21665;-61
2022/08/31 04:35:02;;;;;;;0.43;0.22;;;;;;;;;;1654037;29;21603;-62
2022/08/31 04:35:54;;;;;;;0.40;0.30;;;;;;;;;;1656247;29;22396;-62
2022/08/31 04:36:45;;;;;;;1.05;0.32;;;;;;;;;;1650600;29;22078;-62
2022/08/31 04:37:40;;;;;;;3.53;0.40;;;;;;;;;;1652374;29;21627;-62
2022/08/31 04:38:32;;;;;;;0.20;0.20;;;;;;;;;;1655525;29;21671;-62
2022/08/31 04:39:24;;;;;;;0.60;0.52;;;;;;;;;;1655978;29;21983;-61
2022/08/31 04:40:18;;;;;;;1.10;0.50;;;;;;;;;;1655415;29;21990;-62
2022/08/31 04:41:13;;;;;;;0.38;0.38;;;;;;;;;;1654745;29;21618;-62
2022/08/31 04:42:04;;;;;;;0.40;0.40;;;;;;;;;;1655858;29;21656;-62
2022/08/31 04:42:58;;;;;;;0.20;0.20;;;;;;;;;;1648171;29;21734;-62
2022/08/31 04:43:52;;;;;;;0.88;0.30;;;;;;;;;;1650332;29;22025;-62
2022/08/31 04:44:44;;;;;;;0.32;0.30;;;;;;;;;;1654086;29;22044;-62
2022/08/31 04:45:41;;;;;;;0.55;0.20;;;;;;;;;;1655092;29;22659;-62
2022/08/31 04:46:37;;;;;;;0.80;0.43;;;;;;;;;;1654920;29;22115;-62
2022/08/31 04:47:28;;;;;;;0.30;0.30;;;;;;;;;;1656286;29;22478;-62
2022/08/31 04:48:20;;;;;;;0.95;0.32;;;;;;;;;;1655068;29;22427;-62
2022/08/31 04:49:13;;;;;;;1.30;0.55;;;;;;;;;;1655992;29;21646;-62
2022/08/31 04:50:07;;;;;;;0.45;0.20;;;;;;;;;;1655718;29;21976;-62
2022/08/31 04:51:04;;;;;;;0.20;0.20;;;;;;;;;;1655478;29;22005;-62
2022/08/31 04:51:56;;;;;;;0.32;0.20;;;;;;;;;;1655603;29;22064;-62
2022/08/31 04:52:49;;;;;;;0.30;0.30;;;;;;;;;;1654711;29;21695;-62
2022/08/31 04:53:41;;;;;;;0.75;0.63;;;;;;;;;;1653822;29;22197;-62
2022/08/31 04:54:34;;;;;;;0.40;0.30;;;;;;;;;;1655186;29;21766;-62
2022/08/31 04:55:25;;;;;;;0.30;0.30;;;;;;;;;;1656214;29;22666;-62
2022/08/31 04:56:21;;;;;;;0.45;0.45;;;;;;;;;;1654725;29;21865;-62
2022/08/31 04:57:12;;;;;;;0.35;0.20;;;;;;;;;;1655129;29;21738;-62
2022/08/31 04:58:04;;;;;;;0.40;0.40;;;;;;;;;;1647625;29;21628;-62
2022/08/31 04:58:58;;;;;;;0.73;0.30;;;;;;;;;;1648528;29;21847;-62
2022/08/31 04:59:51;;;;;;;1.02;0.38;;;;;;;;;;1653987;29;22127;-62
2022/08/31 05:00:43;;;;;;;0.38;0.32;;;;;;;;;;1655986;29;22009;-62
2022/08/31 05:01:39;;;;;;;0.20;0.20;;;;;;;;;;1654826;29;21740;-62
2022/08/31 05:02:31;;;;;;;0.65;0.32;;;;;;;;;;1655092;29;22057;-62
2022/08/31 05:03:24;;;;;;;0.40;0.32;;;;;;;;;;1654270;29;21859;-62
2022/08/31 05:04:15;;;;;;;0.77;0.32;;;;;;;;;;1654705;29;22424;-62
2022/08/31 05:05:09;;;;;;;1.20;0.40;;;;;;;;;;1654616;29;21827;-61
2022/08/31 05:06:00;;;;;;;0.73;0.40;;;;;;;;;;1656144;29;22626;-62
2022/08/31 05:06:52;;;;;;;0.30;0.30;;;;;;;;;;1656507;29;21589;-62
2022/08/31 05:07:43;;;;;;;0.60;0.40;;;;;;;;;;1654022;29;22554;-62
2022/08/31 05:08:35;;;;;;;0.95;0.30;;;;;;;;;;1655933;29;21777;-62
2022/08/31 05:09:26;;;;;;;0.77;0.38;;;;;;;;;;1656241;29;21787;-60
2022/08/31 05:10:20;;;;;;;0.93;0.50;;;;;;;;;;1655227;29;21809;-62
2022/08/31 05:11:14;;;;;;;0.30;0.28;;;;;;;;;;1655289;29;21635;-62
2022/08/31 05:12:07;;;;;;;0.57;0.30;;;;;;;;;;1656711;29;22153;-61
2022/08/31 05:12:58;;;;;;;0.57;0.43;;;;;;;;;;1653922;29;21638;-62
2022/08/31 05:13:51;;;;;;;0.70;0.30;;;;;;;;;;1654911;29;22012;-62
2022/08/31 05:14:42;;;;;;;1.35;0.40;;;;;;;;;;1656142;29;21624;-62
2022/08/31 05:15:34;;;;;;;0.30;0.30;;;;;;;;;;1655352;29;21661;-62
2022/08/31 05:16:29;;;;;;;0.40;0.40;;;;;;;;;;1654410;29;22040;-62
2022/08/31 05:17:21;;;;;;;0.40;0.30;;;;;;;;;;1656016;29;21844;-62
2022/08/31 05:18:12;;;;;;;0.70;0.40;;;;;;;;;;1655088;29;22227;-62
2022/08/31 05:19:05;;;;;;;0.43;0.40;;;;;;;;;;1654577;29;21647;-62
2022/08/31 05:19:56;;;;;;;0.52;0.30;;;;;;;;;;1655625;29;21813;-61